»·PEaware :: N24AS KAPA-KASE

N24AS :: KAPA-KASE

FLIGHT INFORMATION

Flight Status: Arrived
Operator: Privately registered:
United States
More flights under this callsign
Pilot: Andrew S. (20703)
Aircraft: SOCATA TBM-900
(TBM9)
More flights by this aircraft type
Origin: KAPA Centennial
United States
Destination: KASE Aspen-Pitkin Co/Sardy
United States
More flights between these airports :: More routes between these airports
Route: +ROCKI4 DBL
File this flight plan on PilotEdge
Remarks:
Altitude:
(Current/Filed)
22,000ft
Speed:
(Current/Filed)
275kts
Departed: 20-Nov-19 07:17 PM
Arrived: 20-Nov-19 07:56 PM
Distance/Time
Traveled:
96nm/0:39
Distance/Time
To Go:
Arrived

Flight Plot

Page will automatically refresh every two minutes.

Flight plan parsing failed; only flown route is shown


Map Options




Map Legend


Flown Route
Filed Route
Departure Airport
Arrival Airport
Navaid (VOR, NDB)
Fix

Horizontal Profiles

Position Reports

Time Latitude Longitude Heading Altitude Ground
Speed
20-Nov-19 19:01 39.570932 -104.848087 180 5887ft 0kts
20-Nov-19 19:02 39.570932 -104.848087 180 5887ft 0kts
20-Nov-19 19:03 39.570932 -104.848087 180 5887ft 0kts
20-Nov-19 19:04 39.570932 -104.848087 180 5887ft 0kts
20-Nov-19 19:05 39.570932 -104.848087 180 5887ft 0kts
20-Nov-19 19:06 39.570932 -104.848087 180 5887ft 0kts
20-Nov-19 19:07 39.570932 -104.848087 180 5887ft 0kts
20-Nov-19 19:08 39.570932 -104.848087 180 5887ft 0kts
20-Nov-19 19:08 39.570932 -104.848087 180 5887ft 0kts
20-Nov-19 19:10 39.570932 -104.848087 180 5887ft 0kts
20-Nov-19 19:11 39.568878 -104.848787 191 5887ft 17kts
20-Nov-19 19:11 39.564350 -104.849122 176 5887ft 22kts
20-Nov-19 19:12 39.557349 -104.848832 177 5887ft 23kts
20-Nov-19 19:14 39.557053 -104.848823 181 5887ft 0kts
20-Nov-19 19:14 39.557053 -104.848823 181 5887ft 0kts
20-Nov-19 19:15 39.556951 -104.850252 2 5887ft 12kts
20-Nov-19 19:16 39.577140 -104.851408 357 6598ft 119kts
20-Nov-19 19:17 39.615230 -104.853777 355 8564ft 146kts
20-Nov-19 19:18 39.655863 -104.858046 358 10687ft 148kts
20-Nov-19 19:19 39.695912 -104.853802 53 12860ft 152kts
20-Nov-19 19:20 39.720795 -104.809699 52 15006ft 152kts
20-Nov-19 19:21 39.747510 -104.765970 53 16849ft 156kts
20-Nov-19 19:22 39.775367 -104.720892 54 18500ft 162kts
20-Nov-19 19:23 39.804499 -104.674185 46 19982ft 170kts
20-Nov-19 19:24 39.829051 -104.711777 228 21227ft 199kts
20-Nov-19 19:25 39.801831 -104.778486 252 22077ft 236kts
20-Nov-19 19:26 39.789527 -104.871760 258 22060ft 276kts
20-Nov-19 19:27 39.778444 -104.971176 262 22045ft 269kts
20-Nov-19 19:28 39.767854 -105.066645 260 22043ft 263kts
20-Nov-19 19:29 39.757216 -105.160755 259 22045ft 264kts
20-Nov-19 19:30 39.746413 -105.256036 259 22048ft 265kts
20-Nov-19 19:31 39.735491 -105.351672 259 22046ft 265kts
20-Nov-19 19:32 39.724495 -105.447284 259 22015ft 266kts
20-Nov-19 19:33 39.713407 -105.543012 259 21971ft 266kts
20-Nov-19 19:34 39.702217 -105.638860 259 21936ft 266kts
20-Nov-19 19:35 39.685437 -105.732021 252 21940ft 264kts
20-Nov-19 19:36 39.666360 -105.824503 252 21944ft 264kts
20-Nov-19 19:37 39.647127 -105.917254 252 21958ft 264kts
20-Nov-19 19:38 39.627805 -106.010015 253 21981ft 263kts
20-Nov-19 19:39 39.608530 -106.102231 252 21992ft 263kts
20-Nov-19 19:40 39.589092 -106.194781 251 21994ft 267kts
20-Nov-19 19:41 39.569342 -106.288406 251 22082ft 266kts
20-Nov-19 19:42 39.549343 -106.382730 252 21767ft 279kts
20-Nov-19 19:43 39.527920 -106.483423 252 20283ft 269kts
20-Nov-19 19:44 39.509658 -106.568881 251 19989ft 223kts
20-Nov-19 19:45 39.492216 -106.650076 251 18167ft 239kts
20-Nov-19 19:46 39.474797 -106.730908 252 16214ft 224kts
20-Nov-19 19:47 39.458133 -106.808041 252 15231ft 218kts
20-Nov-19 19:48 39.440797 -106.887997 252 14238ft 239kts
20-Nov-19 19:49 39.401963 -106.952656 176 13431ft 234kts
20-Nov-19 19:50 39.348203 -106.928734 158 12197ft 160kts
20-Nov-19 19:51 39.308066 -106.907075 161 10161ft 169kts
20-Nov-19 19:52 39.274374 -106.892731 162 9026ft 108kts
20-Nov-19 19:53 39.247993 -106.880495 159 8064ft 105kts
20-Nov-19 19:54 39.221602 -106.868090 157 7752ft 61kts
20-Nov-19 19:55 39.221217 -106.865792 222 7757ft 0kts
20-Nov-19 19:56 39.221217 -106.865792 222 7757ft 0kts

Navigation Log

Ident Type
Flight plan parsing failed, navigation log unavailable